Flight Track Log - Related Links

Times and Time Zones

All times are in EDT time to prevent confusion due to time zone crossing. See the TAM3516 flight status page for this flight to view local times or setup timezone preferences in your user account.

Time Position Orientation Groundspeed Altitude Reporting Facility
EDT Latitude Longitude Course Direction KTS MPH feet Rate Location/Type
Thu 04:11:25 PM -23.4394 -46.4980 238° Southwest 185 213 3,200  Level FlightAware ADS-B
Thu 04:11:31 PM -23.4426 -46.5014 223° Southwest 188 216 3,300 1,200 Climbing FlightAware ADS-B
Thu 04:11:35 PM -23.4466 -46.5040 209° Southwest 192 221 3,400  Climbing FlightAware ADS-B
Thu 04:11:37 PM -23.4422 -46.5011 229° Southwest 187 215 3,300 1,000 Descending FlightAware ADS-B
Thu 04:11:41 PM -23.4503 -46.5052 198° South 195 224 3,500 1,333 Climbing FlightAware ADS-B
Thu 04:11:46 PM -23.4562 -46.5055 178° South 202 232 3,500 600 Level FlightAware ADS-B
Thu 04:11:51 PM -23.4604 -46.5046 167° South 206 237 3,600 750 Climbing FlightAware ADS-B
Thu 04:11:54 PM -23.4566 -46.5055 178° South 202 232 3,600 1,500 Level FlightAware ADS-B
Thu 04:11:55 PM -23.4649 -46.5025 156° South 211 243 3,700  Climbing FlightAware ADS-B
Thu 04:11:58 PM -23.4609 -46.5044 165° South 207 238 3,600 1,000 Descending FlightAware ADS-B
Thu 04:12:01 PM -23.4692 -46.4988 141° Southeast 218 251 3,800 1,714 Climbing FlightAware ADS-B
Thu 04:12:05 PM -23.4724 -46.4947 128° Southeast 224 258 3,800 600 Level FlightAware ADS-B
Thu 04:12:11 PM -23.4750 -46.4899 118° Southeast 231 266 3,900 600 Climbing FlightAware ADS-B
Thu 04:12:15 PM -23.4743 -46.4914 120° Southeast 230 265 3,900 857 Level FlightAware ADS-B
Thu 04:12:25 PM -23.4823 -46.4735 115° Southeast 253 291 4,100 632 Climbing FlightAware ADS-B
Thu 04:12:34 PM -23.4835 -46.4711 115° Southeast 257 296 4,100 1,875 Level FlightAware ADS-B
Thu 04:12:41 PM -23.4890 -46.4548 106° East 268 308 4,600 3,818 Climbing FlightAware ADS-B
Thu 04:12:45 PM -23.4904 -46.4479 101° East 269 310 4,800  Climbing FlightAware ADS-B
Thu 04:12:47 PM -23.4890 -46.4548 106° East 268 308 4,600 2,400 Descending FlightAware ADS-B
Thu 04:13:00 PM -23.4919 -46.4293 91° East 275 316 5,400 3,000 Climbing FlightAware ADS-B
Thu 04:13:15 PM -23.4902 -46.4075 80° East 280 322 6,000 1,263 Climbing FlightAware ADS-B
Thu 04:13:19 PM -23.4909 -46.4117 83° East 280 322 5,800 2,000 Descending FlightAware ADS-B
Thu 04:13:30 PM -23.4858 -46.3864 76° East 286 329 6,500 2,400 Climbing FlightAware ADS-B
Thu 04:13:39 PM -23.4851 -46.3830 77° East 287 330 6,600 2,625 Climbing FlightAware ADS-B
Thu 04:13:46 PM -23.4811 -46.3640 77° East 290 334 7,200 2,471 Climbing FlightAware ADS-B
Thu 04:13:56 PM -23.4800 -46.3588 78° East 292 336 7,300 2,571 Climbing FlightAware ADS-B
Thu 04:14:00 PM -23.4771 -46.3428 78° East 296 341 7,800 2,400 Climbing FlightAware ADS-B
Thu 04:14:11 PM -23.4759 -46.3362 79° East 298 343 7,900 2,400 Climbing FlightAware ADS-B
Thu 04:14:15 PM -23.4734 -46.3221 79° East 299 344 8,400 2,800 Climbing FlightAware ADS-B
Thu 04:14:26 PM -23.4720 -46.3140 79° East 301 346 8,600 2,400 Climbing FlightAware ADS-B
Thu 04:14:30 PM -23.4690 -46.2977 79° East 304 350 9,000 2,250 Climbing FlightAware ADS-B
Thu 04:14:42 PM -23.4680 -46.2920 79° East 305 351 9,200 2,800 Climbing FlightAware ADS-B
Thu 04:14:45 PM -23.4652 -46.2761 78° East 303 349 9,700 2,710 Climbing FlightAware ADS-B
Thu 04:15:13 PM -23.4593 -46.2434 79° East 304 350 10,600 1,448 Climbing FlightAware ADS-B
Thu 04:15:43 PM -23.4505 -46.1956 79° East 339 390 11,100 1,174 Climbing FlightAware ADS-B
Thu 04:15:59 PM -23.4414 -46.1567 69° East 362 417 11,500 1,200 Climbing FlightAware ADS-B
Thu 04:16:08 PM -23.4400 -46.1532 66° East 366 421 11,600 2,000 Climbing FlightAware ADS-B
Thu 04:16:11 PM -23.4324 -46.1397 57° Northeast 369 425 11,900 2,769 Climbing FlightAware ADS-B
Thu 04:16:21 PM -23.4209 -46.1260 44° Northeast 375 432 12,200 2,211 Climbing FlightAware ADS-B
Thu 04:16:30 PM -23.4059 -46.1146 31° Northeast 378 435 12,600 1,091 Climbing FlightAware ADS-B
Thu 04:16:32 PM -23.4131 -46.1194 35° Northeast 379 436 12,400 1,800 Descending FlightAware ADS-B
Thu 04:16:40 PM -23.3912 -46.1080 20° North 379 436 12,900 2,400 Climbing FlightAware ADS-B
Thu 04:16:42 PM -23.3993 -46.1112 25° Northeast 380 437 12,800 1,091 Descending FlightAware ADS-B
Thu 04:16:51 PM -23.3846 -46.1060 14° North 381 438 13,100 2,786 Climbing FlightAware ADS-B
Thu 04:17:10 PM -23.3382 -46.0943 13° North 385 443 14,100 2,108 Climbing FlightAware ADS-B
Thu 04:17:28 PM -23.3178 -46.0892 13° North 389 448 14,400 1,800 Climbing FlightAware ADS-B
Thu 04:17:40 PM -23.2878 -46.0815 13° North 391 450 15,000 1,935 Climbing FlightAware ADS-B
Thu 04:17:59 PM -23.2647 -46.0755 14° North 394 453 15,400 1,935 Climbing FlightAware ADS-B
Thu 04:18:11 PM -23.2319 -46.0670 13° North 398 458 16,000 2,049 Climbing FlightAware ADS-B
Thu 04:18:40 PM -23.1805 -46.0535 13° North 405 466 16,800 1,831 Climbing FlightAware ADS-B
Thu 04:19:10 PM -23.1225 -46.0386 13° North 409 471 17,800 1,548 Climbing FlightAware ADS-B
Thu 04:19:11 PM -23.1341 -46.0416 14° North 408 470 17,600 2,200 Descending FlightAware ADS-B
Thu 04:19:40 PM -23.0668 -46.0241 13° North 406 467 18,900 2,200 Climbing FlightAware ADS-B
Thu 04:19:41 PM -23.0761 -46.0266 14° North 407 468 18,700 1,355 Descending FlightAware ADS-B
Thu 04:20:11 PM -23.0109 -46.0096 13° North 414 476 19,600 1,500 Climbing FlightAware ADS-B
Thu 04:20:17 PM -23.0114 -46.0097 14° North 415 478 19,600 1,448 Level FlightAware ADS-B
Thu 04:20:40 PM -22.9566 -45.9956 13° North 419 482 20,300 1,846 Climbing FlightAware ADS-B
Thu 04:20:56 PM -22.9370 -45.9905 14° North 419 482 20,800 1,400 Climbing FlightAware ADS-B
Thu 04:21:10 PM -22.8978 -45.9795 17° North 426 490 21,000 643 Climbing FlightAware ADS-B
Thu 04:21:24 PM -22.8855 -45.9740 25° Northeast 431 496 21,100 947 Climbing FlightAware ADS-B
Thu 04:21:48 PM -22.8464 -45.9465 36° Northeast 439 505 21,600 1,119 Climbing FlightAware ADS-B
Thu 04:22:23 PM -22.7874 -45.9000 36° Northeast 448 516 22,200 1,217 Climbing FlightAware ADS-B
Thu 04:22:57 PM -22.7279 -45.8537 36° Northeast 454 522 23,000 1,433 Climbing FlightAware ADS-B
Thu 04:23:30 PM -22.6728 -45.8108 36° Northeast 461 531 23,800 1,125 Climbing FlightAware ADS-B
Thu 04:24:01 PM -22.6195 -45.7692 36° Northeast 463 533 24,200 1,048 Climbing FlightAware ADS-B
Thu 04:24:33 PM -22.5644 -45.7265 36° Northeast 461 531 24,900 1,263 Climbing FlightAware ADS-B
Thu 04:25:17 PM -22.4879 -45.6671 36° Northeast 466 536 25,800 1,026 Climbing FlightAware ADS-B
Thu 04:25:49 PM -22.4293 -45.6216 36° Northeast 475 547 26,200 957 Climbing FlightAware ADS-B
Thu 04:31:02 PM -21.8467 -45.1724 35° Northeast 505 581 31,300 1,008 Climbing FlightAware ADS-B (SBJR / RIO)
Thu 04:31:46 PM -21.7622 -45.1075 35° Northeast 500 575 32,200 1,135 Climbing FlightAware ADS-B (SBJR / RIO)
Thu 04:32:16 PM -21.6925 -45.0543 36° Northeast 500 575 32,700 600 Climbing FlightAware ADS-B (SBGL / GIG)
Thu 04:32:46 PM -21.6562 -45.0264 35° Northeast 509 586 32,800 480 Climbing FlightAware ADS-B (SBJR / RIO)
Thu 04:33:06 PM -21.5964 -44.9807 35° Northeast 514 592 33,100 774 Climbing FlightAware ADS-B (SBGL / GIG)
Thu 04:33:17 PM -21.5738 -44.9634 36° Northeast 517 595 33,200 581 Climbing FlightAware ADS-B (SBGL / GIG)
Thu 04:33:37 PM -21.5365 -44.9349 35° Northeast 519 597 33,400 400 Climbing FlightAware ADS-B (SBGL / GIG)
Thu 04:33:47 PM -21.5375 -44.9357 35° Northeast 517 595 33,400 621 Level FlightAware ADS-B (SBJR / RIO)
Thu 04:34:06 PM -21.4775 -44.8901 35° Northeast 521 600 33,700 558 Climbing FlightAware ADS-B (SBGL / GIG)
Thu 04:34:30 PM -21.4465 -44.8664 36° Northeast 525 604 33,800 686 Climbing FlightAware ADS-B (SBRJ / SDU)
Thu 04:34:41 PM -21.4091 -44.8380 35° Northeast 524 603 34,100 1,024 Climbing FlightAware ADS-B (SDAM)
Thu 04:35:11 PM -21.3518 -44.7942 35° Northeast 524 603 34,500 761 Climbing FlightAware ADS-B (SDAM)
Thu 04:35:52 PM -21.2680 -44.7306 35° Northeast 525 604 35,000 714 Climbing FlightAware ADS-B (SDAM)
Thu 04:35:53 PM -21.2661 -44.7290 35° Northeast 525 604 35,000  Level FlightAware ADS-B (SDAM)
Thu 04:36:52 PM -21.1482 -44.6398 35° Northeast 521 600 35,000  Level FlightAware ADS-B (SDAM)
Thu 04:36:54 PM -21.1600 -44.6487 35° Northeast 522 601 35,000  Level FlightAware ADS-B (SBRJ / SDU)
Thu 04:37:23 PM -21.0877 -44.5942 35° Northeast 521 600 35,000  Level FlightAware ADS-B (SDAM)
Thu 04:37:32 PM -21.0859 -44.5926 35° Northeast 521 600 35,000  Level FlightAware ADS-B (SBRJ / SDU)
Thu 04:38:45 PM -20.9474 -44.4882 35° Northeast 519 597 35,000 -635 Level FlightAware ADS-B (SBJR / RIO)
Thu 04:39:16 PM -21.4326 -44.8558 35° Northeast 518 596 33,900  Descending FlightAware ADS-B (SBGL / GIG)
Thu 04:39:28 PM -20.8574 -44.4202 35° Northeast 517 595 35,000 1,138 Climbing FlightAware ADS-B (SBJR / RIO)
Thu 04:40:14 PM -20.7540 -44.3422 35° Northeast 518 596 35,000  Level FlightAware ADS-B (SBGL / GIG)
Thu 04:40:51 PM -20.6791 -44.2855 35° Northeast 517 595 35,000  Level FlightAware ADS-B (SBGL / GIG)
Thu 04:41:54 PM -20.5666 -44.2009 35° Northeast 517 595 35,000  Level FlightAware ADS-B (SBRJ / SDU)
Thu 04:42:27 PM -20.5083 -44.1571 35° Northeast 517 595 35,000  Level FlightAware ADS-B (SBRJ / SDU)
Thu 04:44:00 PM -20.3786 -44.0524 37° Northeast  Level Estimated
Thu 04:45:00 PM -20.2949 -43.9850 37° Northeast  Level Estimated
Thu 04:46:00 PM -20.2112 -43.9176 37° Northeast  Level Estimated
Thu 04:47:00 PM -20.1274 -43.8504 37° Northeast  Level Estimated
Thu 04:48:00 PM -20.0437 -43.7831 37° Northeast  Level Estimated
Thu 04:49:00 PM -19.9599 -43.7160 37° Northeast  Level Estimated
Thu 04:50:00 PM -19.8760 -43.6489 37° Northeast  Level Estimated
Thu 04:51:00 PM -19.7922 -43.5819 37° Northeast  Level Estimated
Thu 04:52:00 PM -19.7083 -43.5150 37° Northeast  Level Estimated
Thu 04:53:00 PM -19.6244 -43.4481 37° Northeast  Level Estimated
Thu 04:54:00 PM -19.5405 -43.3814 37° Northeast  Level Estimated
Thu 04:55:00 PM -19.4565 -43.3146 37° Northeast  Level Estimated
Thu 04:56:00 PM -19.3725 -43.2480 37° Northeast  Level Estimated
Thu 04:57:00 PM -19.2885 -43.1814 37° Northeast  Level Estimated
Thu 04:58:00 PM -19.2045 -43.1149 37° Northeast  Level Estimated
Thu 04:59:00 PM -19.1204 -43.0484 37° Northeast  Level Estimated
Thu 05:00:00 PM -19.0364 -42.9821 37° Northeast  Level Estimated
Thu 05:01:00 PM -18.9523 -42.9157 37° Northeast  Level Estimated
Thu 05:02:00 PM -18.8682 -42.8495 37° Northeast  Level Estimated
Thu 05:03:00 PM -18.7840 -42.7833 37° Northeast  Level Estimated
Thu 05:04:00 PM -18.6999 -42.7172 37° Northeast  Level Estimated
Thu 05:05:00 PM -18.6157 -42.6512 37° Northeast  Level Estimated
Thu 05:06:00 PM -18.5315 -42.5852 37° Northeast  Level Estimated
Thu 05:07:00 PM -18.4472 -42.5193 37° Northeast  Level Estimated
Thu 05:08:00 PM -18.3629 -42.4534 37° Northeast  Level Estimated
Thu 05:09:00 PM -18.2787 -42.3876 37° Northeast  Level Estimated
Thu 05:10:00 PM -18.1944 -42.3219 37° Northeast  Level Estimated
Thu 05:11:00 PM -18.1100 -42.2562 37° Northeast  Level Estimated
Thu 05:12:00 PM -18.0257 -42.1907 36° Northeast  Level Estimated
Thu 05:13:00 PM -17.9413 -42.1251 36° Northeast  Level Estimated
Thu 05:14:00 PM -17.8569 -42.0597 36° Northeast  Level Estimated
Thu 05:15:00 PM -17.7725 -41.9942 36° Northeast  Level Estimated
Thu 05:16:00 PM -17.6881 -41.9289 36° Northeast  Level Estimated
Thu 05:17:00 PM -17.6036 -41.8636 36° Northeast  Level Estimated
Thu 05:18:00 PM -17.5191 -41.7984 36° Northeast  Level Estimated
Thu 05:19:00 PM -17.4346 -41.7332 36° Northeast  Level Estimated
Thu 05:20:00 PM -17.3501 -41.6681 36° Northeast  Level Estimated
Thu 05:21:00 PM -17.2656 -41.6031 36° Northeast  Level Estimated
Thu 05:22:00 PM -17.1810 -41.5381 36° Northeast  Level Estimated
Thu 05:23:00 PM -17.0964 -41.4732 36° Northeast  Level Estimated
Thu 05:24:00 PM -17.0118 -41.4083 36° Northeast  Level Estimated
Thu 05:25:00 PM -16.9272 -41.3435 36° Northeast  Level Estimated
Thu 05:26:00 PM -16.8426 -41.2787 36° Northeast  Level Estimated
Thu 05:27:00 PM -16.7579 -41.2140 36° Northeast  Level Estimated
Thu 05:28:00 PM -16.6732 -41.1494 36° Northeast  Level Estimated
Thu 05:29:00 PM -16.5885 -41.0848 36° Northeast  Level Estimated
Thu 05:30:00 PM -16.5038 -41.0203 36° Northeast  Level Estimated
Thu 05:31:00 PM -16.4190 -40.9558 36° Northeast  Level Estimated
Thu 05:32:00 PM -16.3343 -40.8914 36° Northeast  Level Estimated
Thu 05:33:00 PM -16.2495 -40.8271 36° Northeast  Level Estimated
Thu 05:34:00 PM -16.1647 -40.7628 36° Northeast  Level Estimated
Thu 05:35:00 PM -16.0798 -40.6986 36° Northeast  Level Estimated
Thu 05:36:00 PM -15.9950 -40.6344 36° Northeast  Level Estimated
Thu 05:37:00 PM -15.9101 -40.5702 36° Northeast  Level Estimated
Thu 05:38:00 PM -15.8253 -40.5062 36° Northeast  Level Estimated
Thu 05:39:00 PM -15.7404 -40.4421 36° Northeast  Level Estimated
Thu 05:40:00 PM -15.6554 -40.3782 36° Northeast  Level Estimated
Thu 05:41:00 PM -15.5705 -40.3143 36° Northeast  Level Estimated
Thu 05:42:00 PM -15.4855 -40.2504 36° Northeast  Level Estimated
Thu 05:43:00 PM -15.4006 -40.1866 36° Northeast  Level Estimated
Thu 05:44:00 PM -15.3156 -40.1228 36° Northeast  Level Estimated
Thu 05:45:00 PM -15.2306 -40.0591 36° Northeast  Level Estimated
Thu 05:46:00 PM -15.1455 -39.9954 36° Northeast  Level Estimated
Thu 05:47:00 PM -15.0605 -39.9319 36° Northeast  Level Estimated
Thu 05:48:00 PM -14.9754 -39.8683 36° Northeast  Level Estimated
Thu 05:49:00 PM -14.8904 -39.8048 36° Northeast  Level Estimated
Thu 05:50:00 PM -14.8053 -39.7413 36° Northeast  Level Estimated
Thu 05:51:00 PM -14.7201 -39.6779 36° Northeast  Level Estimated
Thu 05:52:00 PM -14.6350 -39.6146 36° Northeast  Level Estimated
Thu 05:53:00 PM -14.5499 -39.5513 36° Northeast  Level Estimated
Thu 05:54:00 PM -14.4647 -39.4880 36° Northeast  Level Estimated
Thu 05:55:00 PM -14.3795 -39.4248 36° Northeast  Level Estimated
Thu 05:56:00 PM -14.2943 -39.3616 36° Northeast  Level Estimated
Thu 05:57:00 PM -14.2091 -39.2985 36° Northeast  Level Estimated
Thu 05:58:00 PM -14.1239 -39.2355 36° Northeast  Level Estimated
Thu 05:59:00 PM -14.0386 -39.1725 36° Northeast  Level Estimated
Thu 06:00:00 PM -13.9533 -39.1095 36° Northeast  Level Estimated
Thu 06:01:00 PM -13.8681 -39.0466 36° Northeast  Level Estimated
Thu 06:02:00 PM -13.7828 -38.9837 36° Northeast  Level Estimated
Thu 06:03:00 PM -13.6974 -38.9208 36° Northeast  Level Estimated
Thu 06:04:00 PM -13.6121 -38.8581 36° Northeast  Level Estimated
Thu 06:05:00 PM -13.5268 -38.7953 36° Northeast  Level Estimated
Thu 06:06:00 PM -13.4414 -38.7326 36° Northeast  Level Estimated
Thu 06:07:00 PM -13.3560 -38.6700 36° Northeast  Level Estimated
Thu 06:08:00 PM -13.2706 -38.6074 36° Northeast  Level Estimated
Thu 06:09:00 PM -13.1852 -38.5448 35° Northeast  Level Estimated
Thu 06:10:00 PM -13.0998 -38.4823 35° Northeast  Level Estimated
Thu 06:11:00 PM -13.0144 -38.4198 35° Northeast  Level Estimated
Thu 06:12:00 PM -12.9289 -38.3574 35° Northeast  Level Estimated
Thu 06:13:00 PM -12.8434 -38.2950 35° Northeast  Level Estimated
Thu 06:14:00 PM -12.7580 -38.2327 35° Northeast  Level Estimated
Thu 06:15:00 PM -12.6725 -38.1703 35° Northeast  Level Estimated
Thu 06:16:00 PM -12.5870 -38.1081 35° Northeast  Level Estimated
Thu 06:17:00 PM -12.5014 -38.0458 35° Northeast  Level Estimated
Thu 06:18:00 PM -12.4159 -37.9837 35° Northeast  Level Estimated
Thu 06:19:00 PM -12.3303 -37.9215 35° Northeast  Level Estimated
Thu 06:20:00 PM -12.2448 -37.8594 35° Northeast  Level Estimated
Thu 06:21:00 PM -12.1592 -37.7974 35° Northeast  Level Estimated
Thu 06:22:00 PM -12.0736 -37.7354 35° Northeast  Level Estimated
Thu 06:23:00 PM -11.9880 -37.6734 35° Northeast  Level Estimated
Thu 06:24:00 PM -11.9024 -37.6114 35° Northeast  Level Estimated
Thu 06:25:00 PM -11.8167 -37.5495 35° Northeast  Level Estimated
Thu 06:26:00 PM -11.7311 -37.4877 35° Northeast  Level Estimated
Thu 06:27:00 PM -11.6454 -37.4258 35° Northeast  Level Estimated
Thu 06:28:00 PM -11.5597 -37.3641 35° Northeast  Level Estimated
Thu 06:29:00 PM -11.4740 -37.3023 35° Northeast  Level Estimated
Thu 06:30:00 PM -11.3883 -37.2406 35° Northeast  Level Estimated
Thu 06:31:00 PM -11.3026 -37.1789 35° Northeast  Level Estimated
Thu 06:32:00 PM -11.2169 -37.1173 35° Northeast  Level Estimated
Thu 06:33:00 PM -11.1311 -37.0557 35° Northeast  Level Estimated
Thu 06:34:00 PM -11.0454 -36.9941 35° Northeast  Level Estimated
Thu 06:35:00 PM -10.9596 -36.9326 35° Northeast  Level Estimated
Thu 06:36:00 PM -10.8738 -36.8711 35° Northeast  Level Estimated
Thu 06:37:00 PM -10.7880 -36.8097 35° Northeast  Level Estimated
Thu 06:38:00 PM -10.7022 -36.7482 35° Northeast  Level Estimated
Thu 06:39:00 PM -10.6164 -36.6868 35° Northeast  Level Estimated
Thu 06:40:00 PM -10.5306 -36.6255 35° Northeast  Level Estimated
Thu 06:41:00 PM -10.4448 -36.5642 35° Northeast  Level Estimated
Thu 06:42:00 PM -10.3589 -36.5029 35° Northeast  Level Estimated
Thu 06:43:00 PM -10.2731 -36.4416 35° Northeast  Level Estimated
Thu 06:44:00 PM -10.1872 -36.3804 35° Northeast  Level Estimated
Thu 06:45:00 PM -10.1013 -36.3192 35° Northeast  Level Estimated
Thu 06:46:00 PM -10.0154 -36.2581 35° Northeast  Level Estimated
Thu 06:47:00 PM -9.9295 -36.1970 35° Northeast  Level Estimated
Thu 06:48:00 PM -9.8436 -36.1359 35° Northeast  Level Estimated
Thu 06:49:00 PM -9.7576 -36.0748 35° Northeast  Level Estimated
Thu 06:50:00 PM -9.6717 -36.0138 35° Northeast  Level Estimated
Thu 06:51:00 PM -9.5857 -35.9528 35° Northeast  Level Estimated
Thu 06:52:00 PM -9.4998 -35.8918 35° Northeast  Level Estimated
Thu 06:53:00 PM -9.4138 -35.8309 35° Northeast  Level Estimated
Thu 06:54:00 PM -9.3278 -35.7700 35° Northeast  Level Estimated
Thu 06:55:00 PM -9.2418 -35.7091 35° Northeast  Level Estimated
Thu 06:56:00 PM -9.1558 -35.6483 35° Northeast  Level Estimated
Thu 06:57:00 PM -9.0698 -35.5875 35° Northeast  Level Estimated
Thu 06:58:00 PM -8.9838 -35.5267 35° Northeast  Level Estimated
Thu 06:59:00 PM -8.8978 -35.4659 35° Northeast  Level Estimated
Thu 07:00:00 PM -8.8117 -35.4052 35° Northeast  Level Estimated
Thu 07:01:00 PM -8.7257 -35.3445 35° Northeast  Level Estimated
Thu 07:02:00 PM -8.6396 -35.2838 35° Northeast  Level Estimated
Thu 07:03:00 PM -8.5535 -35.2232 35° Northeast  Level Estimated
Thu 07:04:00 PM -8.4675 -35.1626 35° Northeast  Level Estimated
Thu 07:05:00 PM -8.3814 -35.1020 35° Northeast  Level Estimated
Thu 07:06:00 PM -8.2953 -35.0414 35° Northeast  Level Estimated
Thu 07:07:00 PM -8.2092 -34.9809 35° Northeast  Level Estimated
Thu 07:08:00 PM -8.1268 -34.9230 35° Northeast  Level Estimated
Thu 07:09:00 PM -8.1268 -34.9230 North  Level Estimated
Thu 07:10:00 PM -8.1268 -34.9230 North  Level Estimated
Thu 07:11:00 PM -8.1268 -34.9230 North  Level Estimated
Thu 07:12:00 PM -8.1268 -34.9230 North  Level Estimated
Thu 07:13:00 PM -8.1268 -34.9230 North  Level Estimated
Thu 07:14:00 PM -8.1268 -34.9230 North  Level Estimated
Thu 07:15:00 PM -8.1268 -34.9230 North  Level Estimated
Thu 07:16:00 PM -8.1268 -34.9230 North  Level Estimated
Thu 07:17:00 PM -8.1268 -34.9230 North  Level Estimated
Thu 07:18:00 PM -8.1268 -34.9230 North  Level Estimated
Thu 07:19:00 PM -8.1268 -34.9230 North  Level Estimated
Thu 07:20:00 PM -8.1268 -34.9230 North  Level Estimated
Thu 07:21:00 PM -8.1268 -34.9230 North  Level Estimated
Thu 07:22:00 PM -8.1268 -34.9230 North  Level Estimated
Thu 07:23:00 PM -8.1268 -34.9230 North  Level Estimated
Thu 07:24:00 PM -8.1268 -34.9230 North  Level Estimated
Thu 07:25:00 PM -8.1268 -34.9230 North  Level Estimated
Thu 07:26:00 PM -8.1268 -34.9230 North  Level Estimated
Thu 07:27:00 PM -8.1268 -34.9230 North  Level Estimated

Login

Don't have an account? Register now (free) for customized features, flight alerts, and more!